Weather reports worldwide

Advertisment
Punta Galea Golf, Spain (8059): temperature & dewpoint: 08.11.2018 13:00:00 - 14.11.2018 13:00:00 (CET)Punta Galea Golf, Spain (8059): wind speed & gusts: 08.11.2018 13:00:00 - 14.11.2018 13:00:00 (CET)Punta Galea Golf, Spain (8059): wind direction: 08.11.2018 13:00:00 - 14.11.2018 13:00:00 (CET)Punta Galea Golf, Spain (8059): reduced air pressure: 08.11.2018 13:00:00 - 14.11.2018 13:00:00 (CET)Punta Galea Golf, Spain (8059): precipitation: 08.11.2018 13:00:00 - 14.11.2018 13:00:00 (CET)
Date & Time tt [°C] td [°C] ff [km/h] ff [kn] fx [km/h] fx [kn] dd ppp [hPa] rr [mm]
14.11.2018 13:00:00 - - - - - - - - -
14.11.2018 12:00:00 18,8 12,7 9 5 29 16 S 1021,4 0,0
14.11.2018 11:00:00 17,7 12,1 16 9 37 20 S 1021,8 0,0
14.11.2018 10:00:00 16,5 11,7 19 11 41 22 S 1022,3 0,0
14.11.2018 09:00:00 15,5 11,7 15 8 36 20 S 1022,2 0,0
14.11.2018 08:00:00 14,8 11,6 18 10 39 21 S 1021,9 0,0
14.11.2018 07:00:00 14,3 11,4 16 8 33 18 S 1022,1 -
14.11.2018 06:00:00 14,5 11,7 14 8 38 21 S 1022,1 0,0
14.11.2018 05:00:00 14,2 11,6 14 8 32 17 S 1022,5 0,0
14.11.2018 04:00:00 13,6 11,7 13 7 25 13 S 1022,6 0,0
14.11.2018 03:00:00 12,9 11,0 12 6 25 14 SSE 1023,5 0,0
14.11.2018 02:00:00 13,5 11,6 13 7 24 13 S 1023,6 0,0
14.11.2018 01:00:00 13,1 11,4 6 3 22 12 SSE 1024,3 -
14.11.2018 00:00:00 12,3 11,7 9 5 22 12 S 1024,6 0,0
13.11.2018 23:00:00 11,2 10,4 9 5 17 9 SSE 1025,2 0,0
13.11.2018 22:00:00 11,2 10,4 5 3 12 6 SSE 1026,0 0,0
13.11.2018 21:00:00 11,1 10,3 4 2 8 4 S 1026,2 0,0
13.11.2018 20:00:00 11,9 11,0 4 2 15 8 SE 1027,0 0,0
13.11.2018 19:00:00 12,3 11,3 8 4 15 8 SE 1026,6 -
13.11.2018 18:00:00 12,7 11,4 6 4 17 9 ESE 1026,4 0,0
13.11.2018 17:00:00 13,8 11,7 11 6 20 11 E 1026,7 0,0
13.11.2018 16:00:00 14,8 12,3 9 5 16 9 E 1026,7 0,0
13.11.2018 15:00:00 14,7 11,9 10 5 19 10 ESE 1026,9 0,0
13.11.2018 14:00:00 14,4 11,8 10 6 17 9 E 1027,4 0,0
13.11.2018 13:00:00 14,0 11,3 11 6 24 13 ESE 1027,8 -
13.11.2018 12:00:00 14,5 13,3 8 4 18 10 SSE 1028,4 0,0
13.11.2018 11:00:00 13,1 12,6 4 2 10 5 SSE 1028,7 0,0
13.11.2018 10:00:00 12,1 11,7 3 2 7 4 SSE 1028,9 0,0
13.11.2018 09:00:00 11,6 11,1 4 2 7 4 S 1028,5 0,0
13.11.2018 08:00:00 11,3 10,9 4 2 8 4 S 1027,9 0,0
13.11.2018 07:00:00 11,5 11,0 5 3 6 3 SSE 1027,3 -
13.11.2018 06:00:00 11,4 11,0 4 2 6 4 SSE 1026,8 0,0
13.11.2018 05:00:00 11,4 11,0 5 3 8 4 S 1026,4 0,0
13.11.2018 04:00:00 11,5 11,0 5 3 8 5 SSE 1026,1 0,0
13.11.2018 03:00:00 11,5 11,0 5 3 9 5 SSE 1026,2 0,0
13.11.2018 02:00:00 11,6 11,1 5 3 8 5 SSE 1025,5 0,1
13.11.2018 01:00:00 11,6 11,1 0 0 6 3 N 1025,1 -
13.11.2018 00:00:00 11,8 11,3 4 2 8 5 NW 1024,7 0,0
12.11.2018 23:00:00 11,7 11,2 5 3 12 7 WNW 1024,1 0,2
12.11.2018 22:00:00 12,0 11,6 7 4 10 6 WNW 1023,4 0,3
12.11.2018 21:00:00 11,9 11,4 8 5 13 7 WNW 1022,5 0,8
12.11.2018 20:00:00 12,1 11,4 0 0 6 4 N 1021,9 2,5
12.11.2018 19:00:00 12,1 11,4 1 0 7 4 WSW 1021,1 -
12.11.2018 18:00:00 12,7 12,1 0 0 5 3 N 1019,6 1,6
12.11.2018 17:00:00 12,8 12,2 0 0 5 3 N 1018,8 2,2
12.11.2018 16:00:00 12,9 12,3 3 2 8 4 NE 1018,1 0,0
12.11.2018 15:00:00 13,1 12,4 4 2 8 4 NE 1018,0 0,0
12.11.2018 14:00:00 12,9 12,1 5 3 10 5 E 1017,9 0,0
12.11.2018 13:00:00 12,7 12,2 5 3 10 5 ESE 1018,3 -
12.11.2018 12:00:00 12,3 12,0 5 3 9 5 ESE 1018,4 0,0
12.11.2018 11:00:00 11,7 11,4 6 3 9 5 ESE 1018,0 0,0
12.11.2018 10:00:00 11,2 10,9 6 3 10 5 NNE 1017,9 0,1
12.11.2018 09:00:00 11,3 11,0 5 3 11 6 WNW 1016,6 0,0
12.11.2018 08:00:00 11,3 11,0 7 4 16 9 WNW 1016,1 0,6
12.11.2018 07:00:00 11,3 11,0 9 5 24 13 WNW 1015,1 -
12.11.2018 06:00:00 11,1 10,8 11 6 23 12 WNW 1014,1 0,3
12.11.2018 05:00:00 11,8 11,4 5 3 8 5 WNW 1012,8 0,0
12.11.2018 04:00:00 11,8 11,4 3 2 10 5 WNW 1012,2 0,1
12.11.2018 03:00:00 11,5 11,2 8 4 14 8 E 1010,7 1,3
12.11.2018 02:00:00 12,0 11,7 3 2 14 7 N 1011,3 3,5
12.11.2018 01:00:00 11,7 11,4 8 5 20 11 NE 1010,4 -
12.11.2018 00:00:00 11,8 11,4 13 7 25 13 ENE 1009,9 0,0
11.11.2018 23:00:00 12,4 11,9 10 6 19 10 NE 1010,3 0,0
11.11.2018 22:00:00 12,7 12,2 9 5 19 10 ENE 1010,3 0,2
11.11.2018 21:00:00 12,8 12,2 8 4 13 7 NE 1010,0 0,1
11.11.2018 20:00:00 12,9 12,3 5 3 8 4 NNE 1009,4 1,4
11.11.2018 19:00:00 12,8 12,2 2 1 8 5 NE 1009,8 -
11.11.2018 18:00:00 13,0 12,4 0 0 13 7 N 1009,7 0,5
11.11.2018 17:00:00 13,3 12,5 4 2 16 8 ENE 1010,1 1,0
11.11.2018 16:00:00 13,6 12,8 7 4 23 12 NW 1010,6 0,4
11.11.2018 15:00:00 14,9 13,1 18 10 33 18 WNW 1010,0 0,0
11.11.2018 14:00:00 19,6 10,9 4 2 27 15 S 1008,6 0,0
11.11.2018 13:00:00 19,0 9,2 8 5 48 26 SSE 1008,3 -
11.11.2018 12:00:00 19,2 8,8 13 7 43 23 SW 1008,6 0,0
11.11.2018 11:00:00 18,3 8,8 12 6 24 13 S 1008,8 0,0
11.11.2018 10:00:00 17,8 8,1 13 7 58 31 SSW 1009,6 0,0
11.11.2018 09:00:00 18,1 7,8 21 11 54 29 SW 1008,7 0,0
11.11.2018 08:00:00 17,5 7,3 13 7 39 21 SSW 1007,7 0,0
11.11.2018 07:00:00 16,8 7,4 13 7 47 26 SSW 1007,3 -
11.11.2018 06:00:00 16,8 7,4 18 10 46 25 SSW 1006,8 0,0
11.11.2018 05:00:00 16,1 7,0 14 8 43 23 SSW 1007,1 0,0
11.11.2018 04:00:00 16,4 7,0 16 9 50 27 SSW 1007,6 0,0
11.11.2018 03:00:00 16,9 7,0 17 9 49 26 SW 1008,4 0,0
11.11.2018 02:00:00 16,9 7,0 19 11 50 27 SW 1008,2 0,0
11.11.2018 01:00:00 16,9 7,3 21 11 41 22 SW 1008,6 -
11.11.2018 00:00:00 16,4 7,0 18 10 41 22 SW 1008,3 0,0
10.11.2018 23:00:00 15,2 8,9 15 8 33 18 SW 1008,7 0,1
10.11.2018 22:00:00 11,5 10,5 5 3 11 6 SSE 1009,3 0,0
10.11.2018 21:00:00 11,5 10,5 1 0 8 5 E 1009,1 0,0
10.11.2018 20:00:00 12,2 11,2 4 2 10 5 S 1008,5 0,0
10.11.2018 19:00:00 13,1 12,1 5 3 7 4 SE 1008,3 -
10.11.2018 18:00:00 14,1 13,2 5 3 13 7 W 1008,1 0,3
10.11.2018 17:00:00 14,8 13,6 5 3 18 10 N 1007,6 0,1
10.11.2018 16:00:00 17,3 10,6 1 1 13 7 WNW 1005,8 0,0
10.11.2018 15:00:00 16,2 13,4 3 2 18 10 NE 1005,9 0,0
10.11.2018 14:00:00 15,7 14,4 11 6 22 12 NE 1006,1 0,0
10.11.2018 13:00:00 16,1 14,2 6 3 13 7 N 1006,2 -
10.11.2018 12:00:00 14,5 13,9 3 2 8 4 E 1007,6 0,0
10.11.2018 11:00:00 14,0 13,4 4 2 21 12 N 1008,3 0,6
10.11.2018 10:00:00 14,4 13,2 6 3 31 17 NW 1007,6 0,0
10.11.2018 09:00:00 18,3 10,4 18 10 52 28 SW 1006,0 0,0
10.11.2018 08:00:00 17,0 10,4 10 5 37 20 SSW 1005,8 0,0
10.11.2018 07:00:00 16,5 10,5 8 5 20 11 SSW 1006,2 -
10.11.2018 06:00:00 17,3 9,4 6 3 32 17 WSW 1006,7 0,0
10.11.2018 05:00:00 17,5 9,2 16 9 53 29 SW 1006,5 0,0
10.11.2018 04:00:00 17,6 9,2 22 12 57 31 SW 1006,0 0,0
10.11.2018 03:00:00 17,4 9,0 23 12 64 34 SW 1005,8 0,0
10.11.2018 02:00:00 17,1 9,0 25 13 58 32 SW 1005,9 0,0
10.11.2018 01:00:00 15,9 9,0 18 10 51 27 S 1007,3 -
10.11.2018 00:00:00 15,3 8,9 18 10 54 29 S 1008,0 0,0
09.11.2018 23:00:00 14,8 8,9 18 10 42 23 S 1009,0 0,1
09.11.2018 22:00:00 15,3 7,8 16 9 56 30 S 1009,4 0,0
09.11.2018 21:00:00 15,2 7,4 23 12 56 30 SSW 1009,9 0,0
09.11.2018 20:00:00 15,1 6,7 20 11 50 27 SSW 1010,2 0,0
09.11.2018 19:00:00 14,5 6,4 16 9 33 18 S 1010,9 -
09.11.2018 18:00:00 14,8 5,6 15 8 41 22 S 1011,2 0,0
09.11.2018 17:00:00 15,0 4,6 16 8 36 19 SSW 1011,3 0,0
09.11.2018 16:00:00 15,3 4,1 12 6 24 13 S 1012,1 0,0
09.11.2018 15:00:00 15,2 4,3 9 5 26 14 SSW 1013,2 0,0
09.11.2018 14:00:00 15,8 5,5 10 5 27 15 S 1014,0 0,0
09.11.2018 13:00:00 15,4 7,1 9 5 23 13 S 1015,4 -
09.11.2018 12:00:00 14,8 6,5 10 5 23 12 S 1016,6 0,0
09.11.2018 11:00:00 14,1 7,0 9 5 18 10 S 1017,6 0,0
09.11.2018 10:00:00 12,9 7,0 8 4 13 7 WSW 1018,3 0,0
09.11.2018 09:00:00 11,4 7,1 5 3 19 10 SW 1017,8 0,0
09.11.2018 08:00:00 11,8 7,7 9 5 22 12 W 1017,5 0,0
09.11.2018 07:00:00 11,7 8,1 10 6 29 15 W 1017,3 -
09.11.2018 06:00:00 11,5 8,1 14 8 33 18 W 1016,9 0,0
09.11.2018 05:00:00 11,4 9,7 7 4 20 11 W 1016,6 0,0
09.11.2018 04:00:00 11,1 10,2 10 5 24 13 W 1016,1 0,5
09.11.2018 03:00:00 11,3 10,2 8 4 25 14 W 1015,3 0,4
09.11.2018 02:00:00 11,5 10,8 9 5 23 12 W 1013,9 0,3
09.11.2018 01:00:00 11,8 11,0 10 5 33 18 WNW 1013,9 -
09.11.2018 00:00:00 13,0 8,9 10 5 20 11 WSW 1012,9 0,0
08.11.2018 23:00:00 12,8 9,3 9 5 21 11 SSW 1012,6 0,0
08.11.2018 22:00:00 12,0 9,9 12 7 31 17 SE 1011,2 0,3
08.11.2018 21:00:00 14,0 7,7 11 6 29 16 S 1011,2 0,0
08.11.2018 20:00:00 15,1 7,6 11 6 31 17 S 1010,3 0,0
08.11.2018 19:00:00 15,4 7,1 12 7 27 14 SSE 1009,8 -
08.11.2018 18:00:00 15,7 6,7 10 5 24 13 SSE 1009,7 0,0
08.11.2018 17:00:00 17,0 6,5 10 5 22 12 S 1009,3 0,0
08.11.2018 16:00:00 16,8 5,8 8 4 27 15 S 1009,9 0,0
08.11.2018 15:00:00 17,5 6,4 13 7 29 16 SSE 1010,1 0,0
08.11.2018 14:00:00 16,6 5,5 11 6 52 28 SSE 1011,4 0,0
08.11.2018 13:00:00 15,1 6,7 11 6 24 13 SSE 1012,6 -

tt = temperature
td = dewpoint
ff = wind speed
fx = gusts
dd = wind direction
ppp = reduced air pressure
rr = precipitation

Next stations